Time;durP1;ratioP1;P1;durP2;ratioP2;P2;SDS_P1;SDS_P2;PMS_P1;PMS_P2;Temp;Humidity;BMP_temperature;BMP_pressure;BME280_temperature;BME280_humidity;BME280_pressure;Samples;Min_cycle;Max_cycle;Signal;HPM_P1;HPM_P2
2022/07/19 00:01:01;;;;;;;2.05;1.08;;;;;;;18.04;57.98;101218.89;463063;114;922662;-75
2022/07/19 00:02:05;;;;;;;1.46;1.15;;;;;;;18.01;57.89;101221.31;463036;114;930328;-74
2022/07/19 00:03:08;;;;;;;1.86;1.24;;;;;;;17.99;57.91;101220.72;463021;114;922880;-75
2022/07/19 00:04:11;;;;;;;2.37;1.22;;;;;;;17.97;58.00;101217.39;463088;114;922526;-74
2022/07/19 00:05:14;;;;;;;3.09;1.09;;;;;;;17.95;58.06;101217.63;463064;114;922657;-76
2022/07/19 00:06:19;;;;;;;1.38;1.07;;;;;;;17.91;57.98;101225.58;462886;114;923028;-75
2022/07/19 00:07:22;;;;;;;1.56;1.11;;;;;;;17.88;57.96;101215.02;456799;114;922604;-75
2022/07/19 00:08:25;;;;;;;2.33;1.01;;;;;;;17.85;58.00;101226.56;455866;116;922645;-75
2022/07/19 00:09:28;;;;;;;3.59;1.27;;;;;;;17.82;58.05;101218.77;455848;114;922957;-75
2022/07/19 00:10:31;;;;;;;1.36;1.11;;;;;;;17.80;58.04;101222.87;455846;116;922482;-75
2022/07/19 00:11:34;;;;;;;2.72;1.17;;;;;;;17.79;58.19;101226.70;448224;118;922662;-75
2022/07/19 00:12:38;;;;;;;1.11;0.97;;;;;;;17.75;58.19;101220.82;448546;116;923614;-75
2022/07/19 00:13:41;;;;;;;1.61;1.11;;;;;;;17.73;58.20;101227.69;455650;114;930319;-75
2022/07/19 00:14:44;;;;;;;1.67;1.24;;;;;;;17.69;58.27;101221.84;455505;116;922484;-74
2022/07/19 00:15:47;;;;;;;1.47;1.18;;;;;;;17.66;58.38;101222.31;455101;116;922495;-75
2022/07/19 00:16:51;;;;;;;1.07;0.96;;;;;;;17.64;58.44;101220.91;455085;116;922898;-75
2022/07/19 00:17:54;;;;;;;1.45;1.21;;;;;;;17.63;58.58;101227.49;455007;116;922519;-75
2022/07/19 00:18:57;;;;;;;2.04;1.37;;;;;;;17.61;58.67;101226.89;455037;116;922560;-75
2022/07/19 00:20:00;;;;;;;1.15;1.06;;;;;;;17.58;58.82;101230.96;455044;116;922589;-75
2022/07/19 00:21:03;;;;;;;1.82;1.02;;;;;;;17.56;58.85;101227.59;454973;116;922602;-75
2022/07/19 00:22:06;;;;;;;3.36;1.40;;;;;;;17.56;58.99;101221.24;455383;116;930329;-75
2022/07/19 00:23:09;;;;;;;2.33;0.93;;;;;;;17.57;59.22;101229.28;455904;116;922594;-74
2022/07/19 00:24:12;;;;;;;1.12;0.99;;;;;;;17.56;59.35;101224.84;455888;114;922518;-74
2022/07/19 00:25:15;;;;;;;0.99;0.91;;;;;;;17.59;59.45;101227.09;455916;116;922506;-74
2022/07/19 00:26:19;;;;;;;1.22;0.97;;;;;;;17.60;59.51;101226.05;455809;116;923371;-75
2022/07/19 00:27:22;;;;;;;1.77;1.02;;;;;;;17.62;59.60;101217.54;455870;116;923015;-75
2022/07/19 00:28:25;;;;;;;1.27;1.09;;;;;;;17.62;59.38;101228.57;455863;116;922541;-75
2022/07/19 00:29:28;;;;;;;1.47;1.14;;;;;;;17.61;59.34;101226.89;455768;114;923079;-75
2022/07/19 00:30:31;;;;;;;2.01;1.28;;;;;;;17.60;59.50;101223.30;453807;116;922584;-75
2022/07/19 00:31:34;;;;;;;2.05;1.22;;;;;;;17.61;59.37;101230.48;455890;116;923515;-75
2022/07/19 00:32:37;;;;;;;4.65;1.05;;;;;;;17.60;59.37;101223.30;455803;116;922769;-74
2022/07/19 00:33:40;;;;;;;2.87;1.07;;;;;;;17.61;59.41;101226.89;456621;114;930386;-75
2022/07/19 00:34:43;;;;;;;2.26;1.44;;;;;;;17.60;59.42;101227.97;463042;114;923032;-75
2022/07/19 00:35:46;;;;;;;1.66;1.12;;;;;;;17.60;59.41;101226.05;463103;114;922553;-75
2022/07/19 00:36:49;;;;;;;4.22;1.20;;;;;;;17.59;59.52;101229.85;463080;114;922682;-75
2022/07/19 00:37:52;;;;;;;3.42;1.49;;;;;;;17.59;59.57;101232.61;463057;114;922596;-75
2022/07/19 00:38:55;;;;;;;1.92;1.30;;;;;;;17.58;59.47;101219.09;463051;114;922567;-75
2022/07/19 00:39:59;;;;;;;1.83;1.31;;;;;;;17.55;59.50;101222.32;463082;114;922922;-75
2022/07/19 00:41:02;;;;;;;1.58;1.13;;;;;;;17.53;59.46;101218.98;463054;114;923104;-75
2022/07/19 00:42:05;;;;;;;3.08;1.08;;;;;;;17.51;59.55;101224.73;463006;114;923039;-75
2022/07/19 00:43:09;;;;;;;1.36;1.24;;;;;;;17.49;59.56;101216.70;463039;114;922876;-75
2022/07/19 00:44:12;;;;;;;2.19;1.30;;;;;;;17.47;59.59;101216.13;462921;114;922572;-76
2022/07/19 00:45:15;;;;;;;1.99;1.11;;;;;;;17.45;59.70;101221.05;463034;114;930160;-75
2022/07/19 00:46:22;;;;;;;1.48;1.24;;;;;;;17.45;59.82;101220.20;462926;114;922580;-75
2022/07/19 00:47:25;;;;;;;2.15;1.19;;;;;;;17.43;59.79;101217.68;462874;114;930229;-75
2022/07/19 00:48:28;;;;;;;2.59;1.16;;;;;;;17.42;59.74;101220.70;463076;114;930275;-75
2022/07/19 00:49:31;;;;;;;2.07;1.22;;;;;;;17.39;59.71;101216.50;463100;114;922483;-75
2022/07/19 00:50:34;;;;;;;2.63;1.21;;;;;;;17.36;59.76;101221.68;463055;114;922456;-75
2022/07/19 00:51:40;;;;;;;3.25;1.07;;;;;;;17.34;59.83;101218.31;463083;114;930146;-75
2022/07/19 00:52:47;;;;;;;1.68;1.34;;;;;;;17.32;60.02;101220.47;462866;114;922503;-74
2022/07/19 00:53:51;;;;;;;1.68;1.18;;;;;;;17.30;60.03;101217.98;462200;114;923307;-74
2022/07/19 00:54:55;;;;;;;2.96;1.19;;;;;;;17.31;60.05;101216.06;462929;114;922951;-75
2022/07/19 00:55:59;;;;;;;1.22;0.98;;;;;;;17.28;60.04;101222.88;463115;114;922945;-75
2022/07/19 00:57:03;;;;;;;2.26;1.71;;;;;;;17.26;60.05;101216.77;462922;114;922457;-75
2022/07/19 00:58:06;;;;;;;2.17;1.20;;;;;;;17.26;60.20;101215.92;462921;114;930291;-75
2022/07/19 00:59:11;;;;;;;6.69;1.24;;;;;;;17.24;60.22;101218.95;462901;114;930189;-75
2022/07/19 01:00:17;;;;;;;1.71;1.06;;;;;;;17.24;60.27;101220.86;462859;114;930553;-74
2022/07/19 01:01:21;;;;;;;3.06;1.09;;;;;;;17.22;60.30;101214.75;462919;114;922515;-74
2022/07/19 01:02:25;;;;;;;1.42;1.20;;;;;;;17.22;60.33;101225.77;463036;114;922582;-74
2022/07/19 01:03:28;;;;;;;1.74;0.98;;;;;;;17.20;60.33;101228.76;462980;114;922600;-75
2022/07/19 01:04:33;;;;;;;1.31;1.15;;;;;;;17.19;60.33;101226.27;463089;114;923144;-75
2022/07/19 01:05:36;;;;;;;1.75;1.55;;;;;;;17.19;60.33;101223.52;462989;114;922648;-75
2022/07/19 01:06:41;;;;;;;2.21;1.01;;;;;;;17.18;60.43;101217.16;462045;114;922943;-74
2022/07/19 01:07:44;;;;;;;2.22;1.18;;;;;;;17.17;60.39;101226.50;455616;116;922525;-74
2022/07/19 01:08:48;;;;;;;2.44;1.24;;;;;;;17.16;60.42;101222.06;455738;114;923326;-75
2022/07/19 01:09:51;;;;;;;3.63;1.25;;;;;;;17.16;60.47;101226.73;455860;116;923090;-75
2022/07/19 01:10:54;;;;;;;1.99;1.13;;;;;;;17.15;60.39;101225.05;455748;116;922470;-74
2022/07/19 01:11:57;;;;;;;1.41;1.07;;;;;;;17.13;60.47;101224.48;455866;116;922572;-75
2022/07/19 01:13:01;;;;;;;0.85;0.85;;;;;;;17.13;60.53;101227.23;455756;116;922728;-75
2022/07/19 01:14:04;;;;;;;2.34;1.27;;;;;;;17.10;60.48;101229.38;455786;114;923185;-75
2022/07/19 01:15:16;;;;;;;1.86;0.99;;;;;;;17.09;60.57;101230.45;455186;116;922816;-75
2022/07/19 01:16:21;;;;;;;1.56;1.24;;;;;;;17.09;60.57;101221.38;454836;116;923474;-76
2022/07/19 01:17:25;;;;;;;2.26;0.99;;;;;;;17.07;60.61;101223.53;455017;116;922896;-75
2022/07/19 01:18:28;;;;;;;1.55;0.91;;;;;;;17.05;60.66;101222.92;455483;116;922513;-75
2022/07/19 01:19:31;;;;;;;2.52;1.14;;;;;;;17.07;60.77;101229.04;455906;114;922577;-75
2022/07/19 01:20:35;;;;;;;1.66;1.10;;;;;;;17.07;60.86;101229.88;455807;116;922585;-75
2022/07/19 01:21:38;;;;;;;1.97;0.96;;;;;;;17.07;60.96;101229.88;455851;116;930280;-75
2022/07/19 01:22:42;;;;;;;2.13;0.99;;;;;;;17.10;61.07;101234.89;455882;116;922555;-75
2022/07/19 01:23:45;;;;;;;1.44;1.03;;;;;;;17.12;61.16;101226.39;455843;116;922943;-73
2022/07/19 01:24:48;;;;;;;1.75;1.06;;;;;;;17.15;61.24;101231.41;455914;116;923169;-74
2022/07/19 01:25:51;;;;;;;2.01;1.16;;;;;;;17.18;61.22;101228.19;455878;116;922558;-74
2022/07/19 01:26:55;;;;;;;1.72;0.98;;;;;;;17.23;61.20;101230.20;455867;116;922585;-74
2022/07/19 01:27:58;;;;;;;1.61;1.19;;;;;;;17.25;61.10;101233.56;455913;116;922685;-74
2022/07/19 01:29:01;;;;;;;2.27;1.33;;;;;;;17.26;60.96;101235.22;455877;114;922675;-74
2022/07/19 01:30:13;;;;;;;3.34;1.39;;;;;;;17.25;60.88;101231.66;459024;114;922603;-74
2022/07/19 01:31:16;;;;;;;2.87;1.28;;;;;;;17.25;60.64;101237.17;455674;116;923164;-74
2022/07/19 01:32:19;;;;;;;2.04;1.22;;;;;;;17.21;60.66;101235.95;455878;116;923008;-74
2022/07/19 01:33:22;;;;;;;2.49;1.34;;;;;;;17.20;60.55;101247.24;455866;116;922515;-74
2022/07/19 01:34:26;;;;;;;3.98;1.41;;;;;;;17.17;60.56;101236.69;451887;114;922505;-74
2022/07/19 01:35:29;;;;;;;1.52;1.17;;;;;;;17.15;60.57;101236.92;451363;117;923579;-74
2022/07/19 01:36:32;;;;;;;2.04;1.40;;;;;;;17.13;60.59;101238.26;451259;117;922541;-74
2022/07/19 01:37:36;;;;;;;2.02;1.30;;;;;;;17.10;60.69;101234.05;451343;117;922962;-74
2022/07/19 01:38:39;;;;;;;2.09;1.43;;;;;;;17.08;60.64;101234.31;448244;116;923129;-75
2022/07/19 01:39:42;;;;;;;1.67;1.56;;;;;;;17.06;60.67;101244.73;448307;118;922550;-74
2022/07/19 01:40:45;;;;;;;3.12;1.32;;;;;;;17.04;60.63;101235.02;448376;118;922575;-74
2022/07/19 01:41:49;;;;;;;2.77;1.34;;;;;;;17.01;60.64;101236.36;448388;118;923233;-74
2022/07/19 01:42:52;;;;;;;2.79;1.12;;;;;;;16.98;60.79;101242.33;448342;118;922997;-74
2022/07/19 01:43:55;;;;;;;2.04;1.02;;;;;;;16.96;60.87;101247.27;448337;116;923044;-75
2022/07/19 01:44:58;;;;;;;2.58;1.09;;;;;;;16.97;60.88;101250.86;448380;118;922475;-74
2022/07/19 01:46:01;;;;;;;1.73;1.06;;;;;;;16.96;60.96;101244.51;448399;118;922823;-74
2022/07/19 01:47:04;;;;;;;3.52;1.24;;;;;;;16.96;60.86;101247.27;448315;118;922559;-74
2022/07/19 01:48:07;;;;;;;1.44;1.14;;;;;;;16.95;60.80;101245.58;448402;118;923152;-74
2022/07/19 01:49:10;;;;;;;2.22;1.09;;;;;;;16.95;60.80;101241.98;448414;116;922534;-74
2022/07/19 01:50:16;;;;;;;2.09;1.17;;;;;;;16.94;60.80;101252.16;448329;118;922975;-75
2022/07/19 01:51:19;;;;;;;2.42;1.22;;;;;;;16.93;60.74;101244.97;448236;118;923016;-74
2022/07/19 01:52:22;;;;;;;1.54;1.14;;;;;;;16.91;60.74;101249.91;448411;118;922991;-74
2022/07/19 01:53:25;;;;;;;5.26;1.31;;;;;;;16.89;60.72;101251.20;448368;118;922576;-74
2022/07/19 01:54:28;;;;;;;3.76;1.32;;;;;;;16.86;60.91;101247.03;448357;116;922873;-74
2022/07/19 01:55:31;;;;;;;2.30;1.15;;;;;;;16.87;61.09;101253.38;448359;118;922944;-74
2022/07/19 01:56:34;;;;;;;1.81;1.11;;;;;;;16.87;61.12;101256.14;448302;118;922920;-74
2022/07/19 01:57:37;;;;;;;2.97;1.51;;;;;;;16.88;61.20;101255.88;448335;118;922484;-74
2022/07/19 01:58:40;;;;;;;1.89;1.17;;;;;;;16.89;61.18;101254.80;448310;116;922902;-75
2022/07/19 01:59:43;;;;;;;3.50;1.32;;;;;;;16.88;61.17;101255.88;448359;118;923061;-74
2022/07/19 02:00:46;;;;;;;1.87;1.39;;;;;;;16.88;61.19;101253.13;448336;118;922749;-75
2022/07/19 02:01:49;;;;;;;3.46;1.41;;;;;;;16.88;61.18;101260.55;448307;118;922496;-74
2022/07/19 02:02:52;;;;;;;2.94;1.25;;;;;;;16.88;61.19;101264.14;448314;118;922612;-74
2022/07/19 02:03:55;;;;;;;2.54;1.17;;;;;;;16.89;61.35;101264.98;448343;116;922496;-74
2022/07/19 02:04:58;;;;;;;2.63;1.09;;;;;;;16.91;61.41;101262.84;448371;118;922901;-74
2022/07/19 02:06:01;;;;;;;1.35;1.07;;;;;;;16.92;61.37;101259.84;448396;118;922518;-74
2022/07/19 02:07:05;;;;;;;3.92;1.34;;;;;;;16.92;61.14;101272.78;450758;117;922960;-75
2022/07/19 02:08:08;;;;;;;1.61;1.23;;;;;;;16.92;61.14;101272.78;452746;117;922554;-74
2022/07/19 02:09:11;;;;;;;3.31;1.27;;;;;;;16.91;61.06;101265.59;452817;115;922547;-74
2022/07/19 02:10:16;;;;;;;2.31;1.17;;;;;;;16.89;61.06;101263.06;452779;117;922552;-74
2022/07/19 02:11:37;;;;;;;2.82;1.19;;;;;;;16.88;61.01;101269.65;452708;117;922894;-74
2022/07/19 02:12:40;;;;;;;2.29;1.47;;;;;;;16.85;61.04;101267.39;452644;117;923055;-74
2022/07/19 02:13:43;;;;;;;1.63;1.01;;;;;;;16.82;61.16;101269.77;452798;115;922559;-74
2022/07/19 02:14:46;;;;;;;1.82;1.18;;;;;;;16.81;61.23;101268.11;451278;117;922608;-74
2022/07/19 02:15:49;;;;;;;3.36;1.42;;;;;;;16.81;61.33;101262.60;449216;118;922382;-75
2022/07/19 02:16:52;;;;;;;2.16;1.02;;;;;;;16.82;61.39;101267.00;449223;118;922915;-74
2022/07/19 02:17:55;;;;;;;1.67;1.22;;;;;;;16.82;61.35;101267.00;449246;117;923006;-75
2022/07/19 02:18:58;;;;;;;1.42;1.17;;;;;;;16.82;61.35;101278.87;449218;118;922543;-74
2022/07/19 02:20:03;;;;;;;2.49;1.20;;;;;;;16.82;61.33;101273.36;449236;117;922464;-75
2022/07/19 02:21:06;;;;;;;2.61;1.38;;;;;;;16.82;61.31;101276.11;449108;117;923072;-74
2022/07/19 02:22:09;;;;;;;1.45;1.21;;;;;;;16.81;61.39;101276.38;449290;117;923051;-75
2022/07/19 02:23:12;;;;;;;3.16;1.68;;;;;;;16.81;61.48;101279.12;449257;118;922467;-74
2022/07/19 02:24:15;;;;;;;2.22;1.43;;;;;;;16.82;61.48;101286.29;449249;118;922982;-74
2022/07/19 02:25:18;;;;;;;2.46;1.39;;;;;;;16.82;61.43;101276.11;449257;117;923734;-74
2022/07/19 02:26:22;;;;;;;1.73;1.25;;;;;;;16.82;61.45;101281.63;449165;118;922994;-74
2022/07/19 02:27:25;;;;;;;2.59;1.24;;;;;;;16.82;61.44;101281.63;449175;118;930248;-74
2022/07/19 02:28:28;;;;;;;1.70;1.14;;;;;;;16.83;61.46;101277.80;449215;117;922874;-75
2022/07/19 02:29:31;;;;;;;1.11;1.02;;;;;;;16.84;61.53;101284.98;448186;118;922474;-75
2022/07/19 02:30:34;;;;;;;2.22;1.26;;;;;;;16.85;61.48;101291.34;450264;117;922565;-74
2022/07/19 02:31:37;;;;;;;2.16;1.09;;;;;;;16.84;61.42;101292.41;455790;116;922530;-74
2022/07/19 02:32:41;;;;;;;2.93;1.18;;;;;;;16.82;61.56;101284.37;455682;116;923073;-74
2022/07/19 02:33:44;;;;;;;2.31;1.15;;;;;;;16.82;61.47;101289.88;455001;116;922885;-74
2022/07/19 02:34:47;;;;;;;1.65;1.24;;;;;;;16.82;61.66;101292.64;452099;117;922456;-75
2022/07/19 02:35:50;;;;;;;1.55;1.24;;;;;;;16.83;61.73;101287.97;452164;117;922456;-74
2022/07/19 02:36:53;;;;;;;2.06;1.13;;;;;;;16.83;61.75;101286.06;452168;117;922936;-75
2022/07/19 02:37:56;;;;;;;1.21;1.11;;;;;;;16.85;61.88;101296.84;452161;117;922577;-74
2022/07/19 02:38:59;;;;;;;2.88;1.18;;;;;;;16.86;61.89;101296.61;452046;117;923325;-75
2022/07/19 02:40:03;;;;;;;1.66;1.11;;;;;;;16.87;61.82;101292.75;452016;117;923341;-74
2022/07/19 02:41:06;;;;;;;2.94;1.49;;;;;;;16.87;61.75;101298.27;451971;117;922942;-74
2022/07/19 02:42:09;;;;;;;2.26;1.44;;;;;;;16.87;61.85;101303.77;452067;117;922973;-75
2022/07/19 02:43:12;;;;;;;5.19;1.21;;;;;;;16.88;62.04;101305.45;452034;117;922520;-74
2022/07/19 02:44:15;;;;;;;1.79;1.44;;;;;;;16.90;62.14;101302.47;452078;117;922498;-74
2022/07/19 02:45:18;;;;;;;1.26;1.16;;;;;;;16.92;62.14;101303.92;452119;117;922609;-74
2022/07/19 02:46:23;;;;;;;2.64;1.59;;;;;;;16.96;62.10;101301.52;451898;117;922458;-74
2022/07/19 02:47:26;;;;;;;1.69;1.16;;;;;;;16.98;62.04;101300.19;452078;117;922558;-74
2022/07/19 02:48:29;;;;;;;3.71;1.15;;;;;;;17.01;62.02;101307.98;452032;117;922645;-74
2022/07/19 02:49:32;;;;;;;1.36;1.00;;;;;;;17.04;61.84;101310.25;452076;117;922554;-74
2022/07/19 02:50:35;;;;;;;2.35;0.99;;;;;;;17.06;61.74;101308.11;452077;117;922714;-74
2022/07/19 02:51:38;;;;;;;1.31;1.21;;;;;;;17.08;61.62;101314.23;452116;117;922538;-75
2022/07/19 02:52:41;;;;;;;1.45;1.26;;;;;;;17.08;61.53;101319.73;452063;117;922557;-75
2022/07/19 02:53:44;;;;;;;2.99;1.27;;;;;;;17.08;61.50;101316.98;452030;117;923997;-74
2022/07/19 02:54:47;;;;;;;1.39;1.24;;;;;;;17.08;61.43;101311.47;452067;117;922830;-74
2022/07/19 02:55:50;;;;;;;2.67;1.35;;;;;;;17.08;61.31;101322.49;452065;117;922950;-74
2022/07/19 02:56:53;;;;;;;2.26;1.37;;;;;;;17.09;61.24;101320.58;452030;117;922546;-74
2022/07/19 02:57:56;;;;;;;1.91;1.14;;;;;;;17.08;61.30;101324.41;452110;117;922596;-75
2022/07/19 02:58:59;;;;;;;1.92;1.22;;;;;;;17.08;61.25;101322.49;452044;117;922840;-74
2022/07/19 03:00:06;;;;;;;1.23;1.01;;;;;;;17.09;61.29;101320.58;452091;117;922670;-74
2022/07/19 03:01:09;;;;;;;2.33;1.25;;;;;;;17.09;61.32;101318.63;451888;117;922521;-75
2022/07/19 03:02:13;;;;;;;3.47;1.34;;;;;;;17.12;61.31;101320.08;452085;117;923000;-74
2022/07/19 03:04:57;;;;;;;2.43;1.00;;;;;;;17.13;61.19;101319.02;451855;117;922575;-74
2022/07/19 03:06:00;;;;;;;1.12;1.01;;;;;;;17.14;61.23;101317.09;452078;117;923197;-75
2022/07/19 03:07:03;;;;;;;1.96;1.26;;;;;;;17.13;61.29;101320.92;453285;116;922947;-75
2022/07/19 03:08:06;;;;;;;3.98;1.32;;;;;;;17.12;61.29;101313.73;454460;116;922454;-75
2022/07/19 03:09:08;;;;;;;4.23;1.22;;;;;;;17.15;61.28;101318.75;454466;116;922708;-75
2022/07/19 03:10:12;;;;;;;2.34;1.50;;;;;;;17.15;61.32;101316.84;454356;116;922574;-74
2022/07/19 03:11:15;;;;;;;1.74;1.42;;;;;;;17.15;61.29;101322.34;455581;116;930261;-75
2022/07/19 03:12:18;;;;;;;2.41;1.56;;;;;;;17.16;61.26;101323.19;455712;116;922539;-75
2022/07/19 03:13:22;;;;;;;1.94;1.16;;;;;;;17.18;61.27;101330.16;455529;116;923452;-74
2022/07/19 03:14:27;;;;;;;1.54;1.24;;;;;;;17.21;61.29;101328.81;455431;115;922478;-75
2022/07/19 03:15:30;;;;;;;2.94;1.35;;;;;;;17.21;61.27;101321.39;453524;117;922785;-74
2022/07/19 03:16:33;;;;;;;2.14;1.31;;;;;;;17.23;61.27;101330.27;453676;117;930312;-74
2022/07/19 03:17:36;;;;;;;1.69;1.46;;;;;;;17.25;61.28;101319.85;453737;117;923055;-75
2022/07/19 03:18:39;;;;;;;1.49;1.22;;;;;;;17.28;61.24;101330.38;453698;117;922465;-75
2022/07/19 03:19:42;;;;;;;2.57;1.39;;;;;;;17.30;61.16;101327.39;453705;117;922625;-75
2022/07/19 03:20:45;;;;;;;1.75;1.51;;;;;;;17.31;61.04;101323.56;453726;117;922535;-75
2022/07/19 03:21:49;;;;;;;3.58;1.62;;;;;;;17.32;61.01;101325.21;453632;117;922560;-75
2022/07/19 03:22:53;;;;;;;2.25;1.32;;;;;;;17.34;61.08;101323.06;453636;117;923535;-75
2022/07/19 03:23:56;;;;;;;2.83;1.45;;;;;;;17.37;60.96;101328.08;453605;117;930376;-75
2022/07/19 03:24:59;;;;;;;2.21;1.87;;;;;;;17.38;60.86;101324.25;453721;117;922462;-74
2022/07/19 03:26:04;;;;;;;2.64;1.36;;;;;;;17.40;60.79;101327.61;453776;117;922656;-75
2022/07/19 03:27:07;;;;;;;1.51;1.41;;;;;;;17.41;60.74;101332.05;453591;117;922494;-75
2022/07/19 03:28:10;;;;;;;2.11;1.35;;;;;;;17.42;60.71;101328.22;453729;117;922984;-75
2022/07/19 03:29:13;;;;;;;1.99;1.48;;;;;;;17.44;60.69;101320.53;453707;117;923008;-75
2022/07/19 03:30:16;;;;;;;3.66;1.51;;;;;;;17.44;60.69;101320.53;452271;116;923920;-75
2022/07/19 03:31:19;;;;;;;3.61;1.61;;;;;;;17.43;60.70;101325.20;455655;116;930225;-75
2022/07/19 03:32:22;;;;;;;3.24;1.29;;;;;;;17.44;60.66;101326.05;455753;116;922699;-75
2022/07/19 03:33:25;;;;;;;1.52;1.39;;;;;;;17.45;60.74;101324.97;455710;116;922530;-75
2022/07/19 03:34:29;;;;;;;1.56;1.44;;;;;;;17.46;60.65;101333.00;452295;116;922885;-74
2022/07/19 03:35:32;;;;;;;2.68;1.62;;;;;;;17.47;60.76;101337.45;452090;117;922520;-75
2022/07/19 03:36:35;;;;;;;2.37;1.49;;;;;;;17.49;60.74;101334.42;452008;117;922484;-75
2022/07/19 03:37:38;;;;;;;2.87;1.81;;;;;;;17.51;60.72;101335.03;452004;117;930367;-75
2022/07/19 03:38:41;;;;;;;2.74;1.65;;;;;;;17.53;60.73;101338.40;451983;117;922531;-75
2022/07/19 03:39:44;;;;;;;3.10;1.44;;;;;;;17.53;60.69;101333.69;452169;117;922936;-74
2022/07/19 03:40:47;;;;;;;4.33;1.46;;;;;;;17.53;60.66;101339.20;452145;117;923090;-75
2022/07/19 03:41:50;;;;;;;1.71;1.61;;;;;;;17.55;60.68;101340.89;452057;117;922515;-75
2022/07/19 03:42:55;;;;;;;2.16;1.58;;;;;;;17.57;60.70;101338.73;451422;117;923008;-75
2022/07/19 03:43:58;;;;;;;2.54;1.41;;;;;;;17.58;60.69;101341.27;452153;117;922475;-75
2022/07/19 03:45:01;;;;;;;2.11;1.36;;;;;;;17.60;60.67;101343.79;452200;117;923158;-75
2022/07/19 03:46:05;;;;;;;2.36;1.61;;;;;;;17.61;60.67;101349.07;452184;117;922571;-75
2022/07/19 03:47:07;;;;;;;3.11;1.62;;;;;;;17.62;60.67;101347.16;452162;117;922543;-74
2022/07/19 03:48:11;;;;;;;1.59;1.33;;;;;;;17.63;60.71;101344.16;452184;117;922494;-75
2022/07/19 03:49:14;;;;;;;2.72;1.53;;;;;;;17.65;60.66;101341.98;452058;117;922525;-75
2022/07/19 03:50:18;;;;;;;2.30;1.45;;;;;;;17.67;60.68;101338.98;452065;117;922620;-74
2022/07/19 03:51:21;;;;;;;4.61;1.53;;;;;;;17.69;60.72;101339.59;452135;117;922942;-74
2022/07/19 03:52:25;;;;;;;1.41;1.31;;;;;;;17.71;60.73;101346.53;452131;117;922580;-74
2022/07/19 03:53:28;;;;;;;1.97;1.51;;;;;;;17.73;60.69;101343.53;452092;117;922565;-75
2022/07/19 03:54:31;;;;;;;3.19;1.65;;;;;;;17.74;60.78;101348.81;452119;117;922987;-75
2022/07/19 03:55:34;;;;;;;2.08;1.49;;;;;;;17.77;60.68;101347.47;452147;117;922773;-75
2022/07/19 03:56:37;;;;;;;2.08;1.38;;;;;;;17.79;60.64;101342.56;452095;117;922438;-74
2022/07/19 03:57:40;;;;;;;1.83;1.50;;;;;;;17.80;60.64;101342.33;452071;117;930309;-74
2022/07/19 03:58:44;;;;;;;1.47;1.40;;;;;;;17.82;60.64;101344.81;452149;117;922581;-74
2022/07/19 03:59:46;;;;;;;1.72;1.55;;;;;;;17.84;60.52;101345.42;452106;117;922616;-74
2022/07/19 04:00:49;;;;;;;1.72;1.46;;;;;;;17.86;60.45;101351.55;452189;117;922548;-76
2022/07/19 04:01:52;;;;;;;2.77;2.01;;;;;;;17.86;60.55;101346.84;444758;119;922636;-75
2022/07/19 04:02:56;;;;;;;1.78;1.46;;;;;;;17.87;60.50;101351.28;445152;117;922578;-76
2022/07/19 04:03:59;;;;;;;4.97;2.24;;;;;;;17.88;60.53;101350.20;452054;117;922824;-76
2022/07/19 04:05:02;;;;;;;2.75;1.62;;;;;;;17.89;60.51;101351.88;452125;117;922572;-76
2022/07/19 04:06:06;;;;;;;2.17;1.55;;;;;;;17.92;60.57;101350.55;452141;117;922513;-76
2022/07/19 04:07:09;;;;;;;1.95;1.77;;;;;;;17.94;60.57;101348.39;454515;115;923159;-74
2022/07/19 04:08:12;;;;;;;1.96;1.71;;;;;;;17.96;60.62;101351.75;456253;116;922501;-74
2022/07/19 04:09:15;;;;;;;2.09;1.59;;;;;;;17.99;60.63;101355.92;456221;115;922751;-74
2022/07/19 04:10:19;;;;;;;2.29;1.59;;;;;;;18.01;60.63;101351.01;456217;116;922986;-74
2022/07/19 04:11:22;;;;;;;3.19;1.61;;;;;;;18.03;60.56;101355.19;456314;116;922472;-74
2022/07/19 04:12:25;;;;;;;3.51;1.81;;;;;;;18.06;60.46;101351.11;456267;116;922497;-75
2022/07/19 04:13:28;;;;;;;2.61;2.05;;;;;;;18.08;60.40;101360.00;456233;116;922501;-75
2022/07/19 04:14:31;;;;;;;2.59;1.82;;;;;;;18.08;60.40;101358.08;456205;115;922656;-75
2022/07/19 04:15:34;;;;;;;2.98;1.66;;;;;;;18.10;60.47;101361.41;456256;116;922579;-75
2022/07/19 04:16:37;;;;;;;2.27;1.82;;;;;;;18.12;60.46;101358.41;456208;116;923253;-75
2022/07/19 04:17:41;;;;;;;3.36;2.05;;;;;;;18.13;60.42;101355.41;456167;116;922479;-75
2022/07/19 04:18:44;;;;;;;2.03;1.74;;;;;;;18.15;60.39;101363.42;456232;116;922579;-75
2022/07/19 04:19:47;;;;;;;3.54;1.97;;;;;;;18.17;60.42;101358.51;456221;116;922507;-75
2022/07/19 04:20:50;;;;;;;2.18;1.96;;;;;;;18.18;60.45;101349.16;456255;116;922591;-75
2022/07/19 04:21:53;;;;;;;2.47;1.95;;;;;;;18.19;60.53;101354.40;456281;116;922811;-75
2022/07/19 04:22:57;;;;;;;2.31;2.09;;;;;;;18.24;60.62;101364.73;456236;116;922879;-75
2022/07/19 04:24:00;;;;;;;4.55;2.92;;;;;;;18.27;60.58;101358.70;456075;116;922519;-75
2022/07/19 04:25:05;;;;;;;5.61;2.91;;;;;;;18.30;60.58;101361.80;456063;116;922564;-74
2022/07/19 04:26:09;;;;;;;4.73;3.08;;;;;;;18.35;60.59;101366.60;456011;116;922532;-75
2022/07/19 04:27:12;;;;;;;6.94;3.69;;;;;;;18.39;60.56;101365.02;456254;116;922631;-74
2022/07/19 04:28:15;;;;;;;7.21;4.91;;;;;;;18.42;60.46;101358.98;456248;116;922546;-74
2022/07/19 04:29:18;;;;;;;6.13;4.34;;;;;;;18.44;60.28;101362.34;456231;116;923497;-74
2022/07/19 04:30:23;;;;;;;6.02;3.70;;;;;;;18.46;60.12;101356.59;451888;116;922615;-75
2022/07/19 04:31:26;;;;;;;5.15;3.51;;;;;;;18.49;60.08;101362.44;456062;116;930469;-75
2022/07/19 04:32:31;;;;;;;4.64;3.06;;;;;;;18.52;60.01;101359.20;456173;116;930490;-75
2022/07/19 04:33:33;;;;;;;4.80;3.23;;;;;;;18.56;60.08;101354.03;456039;116;923005;-74
2022/07/19 04:34:36;;;;;;;4.08;3.49;;;;;;;18.60;60.02;101369.02;452090;117;923079;-74
2022/07/19 04:35:39;;;;;;;4.94;3.44;;;;;;;18.63;59.89;101360.25;452143;117;922504;-74
2022/07/19 04:36:43;;;;;;;4.32;3.37;;;;;;;18.66;59.87;101360.58;452145;117;922537;-74
2022/07/19 04:37:46;;;;;;;5.82;3.88;;;;;;;18.70;59.78;101363.66;452109;117;922871;-74
2022/07/19 04:38:49;;;;;;;5.75;4.01;;;;;;;18.71;59.72;101357.06;452056;117;922801;-74
2022/07/19 04:39:52;;;;;;;11.53;4.22;;;;;;;18.73;59.62;101355.73;451962;117;923540;-74
2022/07/19 04:40:55;;;;;;;7.09;4.10;;;;;;;18.73;59.50;101358.50;451982;117;922824;-74
2022/07/19 04:42:00;;;;;;;10.14;5.57;;;;;;;18.75;59.51;101352.70;451650;117;923215;-75
2022/07/19 04:43:04;;;;;;;5.89;4.81;;;;;;;18.76;59.54;101357.14;452022;117;923439;-75
2022/07/19 04:44:07;;;;;;;6.92;5.67;;;;;;;18.77;59.41;101353.30;451986;117;922494;-75
2022/07/19 04:45:10;;;;;;;6.90;5.59;;;;;;;18.78;59.33;101348.61;452009;117;922604;-75
2022/07/19 04:46:13;;;;;;;7.61;5.02;;;;;;;18.80;59.33;101354.73;451930;117;923085;-75
2022/07/19 04:47:16;;;;;;;6.34;5.14;;;;;;;18.82;59.40;101353.38;452029;117;922513;-73
2022/07/19 04:48:20;;;;;;;7.32;5.51;;;;;;;18.85;59.41;101360.35;452020;117;922720;-75
2022/07/19 04:49:23;;;;;;;5.41;4.45;;;;;;;18.87;59.38;101361.76;451887;117;922537;-75
2022/07/19 04:50:28;;;;;;;7.14;5.27;;;;;;;18.89;59.39;101351.30;451924;117;922553;-75
2022/07/19 04:51:31;;;;;;;7.83;4.86;;;;;;;18.93;59.33;101351.63;451996;117;923138;-75
2022/07/19 04:52:34;;;;;;;5.63;5.03;;;;;;;18.96;59.35;101354.74;451987;117;922577;-76
2022/07/19 04:53:37;;;;;;;7.62;5.48;;;;;;;18.99;59.31;101351.46;451971;117;923064;-75